To NAV CANADA Home Page Login to a new session Search on AWWS site Disclaimer Vers la page française équivalente Tips FAQ What's new on the site To the Forecasts and Observations / NOTAM section To "File a Flight Plan" website Publications and other links Update of the User's profile FIC Telephone Numbers My Weather Data Folder Route Weather Data Regional Weather Data Local Weather Data To the Forecasts and Observations / NOTAM section
Request Generated 03/19/2019 at 23:30:49 UTC . Weather information available at that time is displayed.

METAR/TAF

QUESNEL/BC    (show WxCam)

METAR CYQZ 192300Z AUTO 00000KT 9SM CLR 12/M04 A3008 RMK SLP211=
METAR CYQZ 192200Z AUTO 00000KT 9SM CLR 11/M05 A3011 RMK SLP223=
METAR CYQZ 192100Z AUTO 03003KT 9SM CLR 09/M04 A3015 RMK SLP234=

TAF CYQZ 191838Z 1919/2006 VRB03KT P6SM SKC TEMPO 1919/1920 4SM HZ BR
RMK FCST BASED ON AUTO OBS. NXT FCST BY 200100Z=
Your time UTC time
Weather data provided by Environment Canada and NAV CANADA